sensor_id;sensor_type;location;lat;lon;timestamp;P1;durP1;ratioP1;P2;durP2;ratioP2
67861;SDS011;54665;51.462;6.698;2022-11-20T00:01:09;46.43;;;16.17;;
67861;SDS011;54665;51.462;6.698;2022-11-20T00:03:36;48.30;;;19.00;;
67861;SDS011;54665;51.462;6.698;2022-11-20T00:06:02;47.70;;;17.73;;
67861;SDS011;54665;51.462;6.698;2022-11-20T00:08:29;49.65;;;17.98;;
67861;SDS011;54665;51.462;6.698;2022-11-20T00:10:55;59.40;;;21.70;;
67861;SDS011;54665;51.462;6.698;2022-11-20T00:13:20;47.10;;;17.90;;
67861;SDS011;54665;51.462;6.698;2022-11-20T00:15:45;49.77;;;17.10;;
67861;SDS011;54665;51.462;6.698;2022-11-20T00:18:11;50.10;;;18.40;;
67861;SDS011;54665;51.462;6.698;2022-11-20T00:20:36;48.63;;;17.73;;
67861;SDS011;54665;51.462;6.698;2022-11-20T00:23:02;46.87;;;17.07;;
67861;SDS011;54665;51.462;6.698;2022-11-20T00:25:27;44.53;;;16.70;;
67861;SDS011;54665;51.462;6.698;2022-11-20T00:27:52;45.30;;;17.23;;
67861;SDS011;54665;51.462;6.698;2022-11-20T00:30:18;40.90;;;15.43;;
67861;SDS011;54665;51.462;6.698;2022-11-20T00:32:43;41.27;;;15.23;;
67861;SDS011;54665;51.462;6.698;2022-11-20T00:35:09;44.90;;;16.17;;
67861;SDS011;54665;51.462;6.698;2022-11-20T00:37:34;43.90;;;14.97;;
67861;SDS011;54665;51.462;6.698;2022-11-20T00:39:59;44.57;;;15.93;;
67861;SDS011;54665;51.462;6.698;2022-11-20T00:42:25;40.78;;;15.60;;
67861;SDS011;54665;51.462;6.698;2022-11-20T00:44:50;37.97;;;14.70;;
67861;SDS011;54665;51.462;6.698;2022-11-20T00:47:15;41.63;;;15.20;;
67861;SDS011;54665;51.462;6.698;2022-11-20T00:49:41;41.33;;;15.60;;
67861;SDS011;54665;51.462;6.698;2022-11-20T00:52:06;41.37;;;15.03;;
67861;SDS011;54665;51.462;6.698;2022-11-20T00:54:32;45.80;;;18.00;;
67861;SDS011;54665;51.462;6.698;2022-11-20T00:56:57;47.53;;;16.10;;
67861;SDS011;54665;51.462;6.698;2022-11-20T00:59:22;39.37;;;15.40;;
67861;SDS011;54665;51.462;6.698;2022-11-20T01:01:48;43.77;;;16.27;;
67861;SDS011;54665;51.462;6.698;2022-11-20T01:04:13;40.93;;;15.13;;
67861;SDS011;54665;51.462;6.698;2022-11-20T01:06:39;43.60;;;15.67;;
67861;SDS011;54665;51.462;6.698;2022-11-20T01:09:12;45.58;;;16.00;;
67861;SDS011;54665;51.462;6.698;2022-11-20T01:11:39;41.17;;;16.02;;
67861;SDS011;54665;51.462;6.698;2022-11-20T01:14:07;45.00;;;15.90;;
67861;SDS011;54665;51.462;6.698;2022-11-20T01:16:37;40.42;;;15.15;;
67861;SDS011;54665;51.462;6.698;2022-11-20T01:19:06;46.72;;;16.40;;
67861;SDS011;54665;51.462;6.698;2022-11-20T01:21:35;42.95;;;15.52;;
67861;SDS011;54665;51.462;6.698;2022-11-20T01:24:02;47.05;;;16.30;;
67861;SDS011;54665;51.462;6.698;2022-11-20T01:26:30;47.25;;;16.92;;
67861;SDS011;54665;51.462;6.698;2022-11-20T01:28:57;49.22;;;17.75;;
67861;SDS011;54665;51.462;6.698;2022-11-20T01:31:25;47.88;;;17.55;;
67861;SDS011;54665;51.462;6.698;2022-11-20T01:33:56;46.08;;;17.02;;
67861;SDS011;54665;51.462;6.698;2022-11-20T01:36:23;48.90;;;17.95;;
67861;SDS011;54665;51.462;6.698;2022-11-20T01:38:53;53.00;;;19.98;;
67861;SDS011;54665;51.462;6.698;2022-11-20T01:41:20;51.03;;;19.67;;
67861;SDS011;54665;51.462;6.698;2022-11-20T01:44:05;52.20;;;20.02;;
67861;SDS011;54665;51.462;6.698;2022-11-20T01:46:32;51.63;;;20.27;;
67861;SDS011;54665;51.462;6.698;2022-11-20T01:49:02;59.35;;;21.98;;
67861;SDS011;54665;51.462;6.698;2022-11-20T01:51:43;58.00;;;20.23;;
67861;SDS011;54665;51.462;6.698;2022-11-20T01:54:15;59.20;;;21.02;;
67861;SDS011;54665;51.462;6.698;2022-11-20T01:57:09;67.28;;;24.48;;
67861;SDS011;54665;51.462;6.698;2022-11-20T01:59:40;66.85;;;24.75;;
67861;SDS011;54665;51.462;6.698;2022-11-20T02:02:18;61.33;;;23.02;;
67861;SDS011;54665;51.462;6.698;2022-11-20T02:04:44;60.13;;;24.30;;
67861;SDS011;54665;51.462;6.698;2022-11-20T02:07:09;62.80;;;24.38;;
67861;SDS011;54665;51.462;6.698;2022-11-20T02:09:35;66.63;;;25.65;;
67861;SDS011;54665;51.462;6.698;2022-11-20T02:12:01;66.87;;;26.80;;
67861;SDS011;54665;51.462;6.698;2022-11-20T02:14:27;63.40;;;25.63;;
67861;SDS011;54665;51.462;6.698;2022-11-20T02:16:53;65.33;;;25.50;;
67861;SDS011;54665;51.462;6.698;2022-11-20T02:24:21;61.67;;;25.10;;
67861;SDS011;54665;51.462;6.698;2022-11-20T02:29:19;63.53;;;24.67;;
67861;SDS011;54665;51.462;6.698;2022-11-20T02:31:51;61.15;;;25.50;;
67861;SDS011;54665;51.462;6.698;2022-11-20T02:34:17;60.30;;;24.67;;
67861;SDS011;54665;51.462;6.698;2022-11-20T02:36:42;60.30;;;22.97;;
67861;SDS011;54665;51.462;6.698;2022-11-20T02:39:09;58.33;;;24.27;;
67861;SDS011;54665;51.462;6.698;2022-11-20T02:41:38;56.73;;;23.97;;
67861;SDS011;54665;51.462;6.698;2022-11-20T02:44:04;60.60;;;24.58;;
67861;SDS011;54665;51.462;6.698;2022-11-20T02:46:30;61.57;;;24.40;;
67861;SDS011;54665;51.462;6.698;2022-11-20T02:48:57;56.13;;;22.95;;
67861;SDS011;54665;51.462;6.698;2022-11-20T02:51:22;63.27;;;24.97;;
67861;SDS011;54665;51.462;6.698;2022-11-20T02:53:48;54.35;;;23.33;;
67861;SDS011;54665;51.462;6.698;2022-11-20T02:56:13;54.87;;;22.60;;
67861;SDS011;54665;51.462;6.698;2022-11-20T02:58:39;59.67;;;23.20;;
67861;SDS011;54665;51.462;6.698;2022-11-20T03:01:04;56.40;;;22.73;;
67861;SDS011;54665;51.462;6.698;2022-11-20T03:03:30;50.67;;;22.07;;
67861;SDS011;54665;51.462;6.698;2022-11-20T03:05:55;53.70;;;22.13;;
67861;SDS011;54665;51.462;6.698;2022-11-20T03:08:23;53.63;;;22.00;;
67861;SDS011;54665;51.462;6.698;2022-11-20T03:10:49;53.73;;;22.00;;
67861;SDS011;54665;51.462;6.698;2022-11-20T03:13:14;55.40;;;21.85;;
67861;SDS011;54665;51.462;6.698;2022-11-20T03:15:40;47.20;;;20.93;;
67861;SDS011;54665;51.462;6.698;2022-11-20T03:18:05;55.43;;;22.27;;
67861;SDS011;54665;51.462;6.698;2022-11-20T03:20:32;57.37;;;22.57;;
67861;SDS011;54665;51.462;6.698;2022-11-20T03:22:58;56.92;;;22.80;;
67861;SDS011;54665;51.462;6.698;2022-11-20T03:25:24;50.30;;;21.17;;
67861;SDS011;54665;51.462;6.698;2022-11-20T03:27:49;50.80;;;21.33;;
67861;SDS011;54665;51.462;6.698;2022-11-20T03:30:14;54.55;;;22.17;;
67861;SDS011;54665;51.462;6.698;2022-11-20T03:32:40;52.37;;;21.33;;
67861;SDS011;54665;51.462;6.698;2022-11-20T03:35:05;49.77;;;21.30;;
67861;SDS011;54665;51.462;6.698;2022-11-20T03:37:31;53.72;;;22.13;;
67861;SDS011;54665;51.462;6.698;2022-11-20T03:39:57;51.03;;;21.47;;
67861;SDS011;54665;51.462;6.698;2022-11-20T03:42:22;51.30;;;21.83;;
67861;SDS011;54665;51.462;6.698;2022-11-20T03:45:06;47.33;;;20.33;;
67861;SDS011;54665;51.462;6.698;2022-11-20T03:47:32;48.88;;;20.55;;
67861;SDS011;54665;51.462;6.698;2022-11-20T03:49:57;49.90;;;20.80;;
67861;SDS011;54665;51.462;6.698;2022-11-20T03:52:23;48.53;;;20.53;;
67861;SDS011;54665;51.462;6.698;2022-11-20T03:54:49;49.08;;;20.63;;
67861;SDS011;54665;51.462;6.698;2022-11-20T03:57:14;50.43;;;22.00;;
67861;SDS011;54665;51.462;6.698;2022-11-20T03:59:39;50.40;;;20.83;;
67861;SDS011;54665;51.462;6.698;2022-11-20T04:02:05;55.23;;;22.27;;
67861;SDS011;54665;51.462;6.698;2022-11-20T04:04:30;50.67;;;20.88;;
67861;SDS011;54665;51.462;6.698;2022-11-20T04:06:56;50.73;;;20.83;;
67861;SDS011;54665;51.462;6.698;2022-11-20T04:09:21;49.53;;;20.23;;
67861;SDS011;54665;51.462;6.698;2022-11-20T04:11:46;48.30;;;19.27;;
67861;SDS011;54665;51.462;6.698;2022-11-20T04:14:15;50.67;;;21.00;;
67861;SDS011;54665;51.462;6.698;2022-11-20T04:16:41;46.38;;;20.52;;
67861;SDS011;54665;51.462;6.698;2022-11-20T04:19:11;48.33;;;20.15;;
67861;SDS011;54665;51.462;6.698;2022-11-20T04:21:39;46.83;;;20.17;;
67861;SDS011;54665;51.462;6.698;2022-11-20T04:24:04;51.57;;;20.90;;
67861;SDS011;54665;51.462;6.698;2022-11-20T04:26:30;48.27;;;20.43;;
67861;SDS011;54665;51.462;6.698;2022-11-20T04:28:56;51.77;;;20.17;;
67861;SDS011;54665;51.462;6.698;2022-11-20T04:31:24;52.58;;;20.48;;
67861;SDS011;54665;51.462;6.698;2022-11-20T04:33:50;42.40;;;18.02;;
67861;SDS011;54665;51.462;6.698;2022-11-20T04:36:17;40.77;;;17.40;;
67861;SDS011;54665;51.462;6.698;2022-11-20T04:38:44;38.40;;;16.42;;
67861;SDS011;54665;51.462;6.698;2022-11-20T04:41:17;43.70;;;18.63;;
67861;SDS011;54665;51.462;6.698;2022-11-20T04:43:48;45.47;;;18.48;;
67861;SDS011;54665;51.462;6.698;2022-11-20T04:46:15;51.40;;;20.13;;
67861;SDS011;54665;51.462;6.698;2022-11-20T04:48:44;52.15;;;21.23;;
67861;SDS011;54665;51.462;6.698;2022-11-20T04:51:09;56.35;;;22.02;;
67861;SDS011;54665;51.462;6.698;2022-11-20T04:53:34;53.00;;;21.63;;
67861;SDS011;54665;51.462;6.698;2022-11-20T04:56:00;50.90;;;20.90;;
67861;SDS011;54665;51.462;6.698;2022-11-20T04:58:26;49.45;;;21.02;;
67861;SDS011;54665;51.462;6.698;2022-11-20T05:00:52;48.80;;;20.17;;
67861;SDS011;54665;51.462;6.698;2022-11-20T05:03:17;47.53;;;20.10;;
67861;SDS011;54665;51.462;6.698;2022-11-20T05:05:43;50.80;;;19.80;;
67861;SDS011;54665;51.462;6.698;2022-11-20T05:08:08;47.13;;;20.13;;
67861;SDS011;54665;51.462;6.698;2022-11-20T05:10:33;44.93;;;19.13;;
67861;SDS011;54665;51.462;6.698;2022-11-20T05:12:59;46.00;;;19.30;;
67861;SDS011;54665;51.462;6.698;2022-11-20T05:15:24;43.37;;;18.57;;
67861;SDS011;54665;51.462;6.698;2022-11-20T05:17:50;44.63;;;18.77;;
67861;SDS011;54665;51.462;6.698;2022-11-20T05:20:16;44.10;;;19.05;;
67861;SDS011;54665;51.462;6.698;2022-11-20T05:22:42;47.58;;;18.90;;
67861;SDS011;54665;51.462;6.698;2022-11-20T05:25:09;41.53;;;18.40;;
67861;SDS011;54665;51.462;6.698;2022-11-20T05:27:34;43.92;;;19.15;;
67861;SDS011;54665;51.462;6.698;2022-11-20T05:30:00;44.97;;;17.83;;
67861;SDS011;54665;51.462;6.698;2022-11-20T05:32:25;42.55;;;18.05;;
67861;SDS011;54665;51.462;6.698;2022-11-20T05:34:51;43.97;;;17.37;;
67861;SDS011;54665;51.462;6.698;2022-11-20T05:37:17;43.30;;;17.48;;
67861;SDS011;54665;51.462;6.698;2022-11-20T05:39:42;47.77;;;18.97;;
67861;SDS011;54665;51.462;6.698;2022-11-20T05:42:08;43.67;;;17.70;;
67861;SDS011;54665;51.462;6.698;2022-11-20T05:44:52;41.35;;;17.58;;
67861;SDS011;54665;51.462;6.698;2022-11-20T05:47:17;44.73;;;18.83;;
67861;SDS011;54665;51.462;6.698;2022-11-20T05:49:43;45.80;;;19.33;;
67861;SDS011;54665;51.462;6.698;2022-11-20T05:52:08;48.10;;;19.53;;
67861;SDS011;54665;51.462;6.698;2022-11-20T05:54:33;48.70;;;19.93;;
67861;SDS011;54665;51.462;6.698;2022-11-20T05:56:59;43.27;;;18.73;;
67861;SDS011;54665;51.462;6.698;2022-11-20T05:59:24;44.10;;;18.13;;
67861;SDS011;54665;51.462;6.698;2022-11-20T06:01:50;41.43;;;18.53;;
67861;SDS011;54665;51.462;6.698;2022-11-20T06:04:15;46.80;;;18.43;;
67861;SDS011;54665;51.462;6.698;2022-11-20T06:06:40;44.33;;;18.13;;
67861;SDS011;54665;51.462;6.698;2022-11-20T06:09:06;44.47;;;18.75;;
67861;SDS011;54665;51.462;6.698;2022-11-20T06:11:31;45.07;;;19.00;;
67861;SDS011;54665;51.462;6.698;2022-11-20T06:13:57;43.83;;;19.03;;
67861;SDS011;54665;51.462;6.698;2022-11-20T06:16:22;47.47;;;18.83;;
67861;SDS011;54665;51.462;6.698;2022-11-20T06:18:47;46.43;;;19.93;;
67861;SDS011;54665;51.462;6.698;2022-11-20T06:21:14;46.33;;;19.53;;
67861;SDS011;54665;51.462;6.698;2022-11-20T06:23:41;44.45;;;19.88;;
67861;SDS011;54665;51.462;6.698;2022-11-20T06:26:08;48.78;;;20.45;;
67861;SDS011;54665;51.462;6.698;2022-11-20T06:28:35;45.78;;;19.90;;
67861;SDS011;54665;51.462;6.698;2022-11-20T06:31:01;49.77;;;19.97;;
67861;SDS011;54665;51.462;6.698;2022-11-20T06:33:27;48.38;;;20.00;;
67861;SDS011;54665;51.462;6.698;2022-11-20T06:35:55;50.08;;;20.38;;
67861;SDS011;54665;51.462;6.698;2022-11-20T06:38:22;48.80;;;20.10;;
67861;SDS011;54665;51.462;6.698;2022-11-20T06:40:47;49.03;;;20.70;;
67861;SDS011;54665;51.462;6.698;2022-11-20T06:43:12;47.67;;;19.83;;
67861;SDS011;54665;51.462;6.698;2022-11-20T06:45:38;51.47;;;19.80;;
67861;SDS011;54665;51.462;6.698;2022-11-20T06:48:03;51.07;;;21.00;;
67861;SDS011;54665;51.462;6.698;2022-11-20T06:50:29;51.40;;;21.77;;
67861;SDS011;54665;51.462;6.698;2022-11-20T06:52:54;50.05;;;21.48;;
67861;SDS011;54665;51.462;6.698;2022-11-20T06:55:20;48.93;;;20.93;;
67861;SDS011;54665;51.462;6.698;2022-11-20T06:57:46;49.03;;;20.98;;
67861;SDS011;54665;51.462;6.698;2022-11-20T07:00:11;54.03;;;22.07;;
67861;SDS011;54665;51.462;6.698;2022-11-20T07:02:37;50.53;;;21.00;;
67861;SDS011;54665;51.462;6.698;2022-11-20T07:05:02;50.77;;;20.77;;
67861;SDS011;54665;51.462;6.698;2022-11-20T07:07:28;50.58;;;20.63;;
67861;SDS011;54665;51.462;6.698;2022-11-20T07:09:54;54.20;;;22.13;;
67861;SDS011;54665;51.462;6.698;2022-11-20T07:12:19;51.25;;;21.20;;
67861;SDS011;54665;51.462;6.698;2022-11-20T07:14:45;50.77;;;21.23;;
67861;SDS011;54665;51.462;6.698;2022-11-20T07:17:11;54.23;;;22.30;;
67861;SDS011;54665;51.462;6.698;2022-11-20T07:19:36;52.72;;;22.25;;
67861;SDS011;54665;51.462;6.698;2022-11-20T07:22:02;54.63;;;22.33;;
67861;SDS011;54665;51.462;6.698;2022-11-20T07:24:27;54.53;;;22.27;;
67861;SDS011;54665;51.462;6.698;2022-11-20T07:26:52;58.03;;;23.43;;
67861;SDS011;54665;51.462;6.698;2022-11-20T07:29:18;62.67;;;23.57;;
67861;SDS011;54665;51.462;6.698;2022-11-20T07:31:43;60.33;;;23.48;;
67861;SDS011;54665;51.462;6.698;2022-11-20T07:34:08;61.00;;;24.20;;
67861;SDS011;54665;51.462;6.698;2022-11-20T07:36:34;61.27;;;23.93;;
67861;SDS011;54665;51.462;6.698;2022-11-20T07:38:59;54.30;;;22.67;;
67861;SDS011;54665;51.462;6.698;2022-11-20T07:41:25;54.85;;;21.67;;
67861;SDS011;54665;51.462;6.698;2022-11-20T07:43:50;44.57;;;18.80;;
67861;SDS011;54665;51.462;6.698;2022-11-20T07:46:16;55.20;;;22.97;;
67861;SDS011;54665;51.462;6.698;2022-11-20T07:48:41;52.43;;;21.90;;
67861;SDS011;54665;51.462;6.698;2022-11-20T07:51:07;51.00;;;21.73;;
67861;SDS011;54665;51.462;6.698;2022-11-20T07:53:32;50.10;;;21.67;;
67861;SDS011;54665;51.462;6.698;2022-11-20T07:56:01;47.10;;;20.97;;
67861;SDS011;54665;51.462;6.698;2022-11-20T07:58:28;50.80;;;21.23;;
67861;SDS011;54665;51.462;6.698;2022-11-20T08:00:54;50.55;;;20.75;;
67861;SDS011;54665;51.462;6.698;2022-11-20T08:03:20;47.90;;;19.60;;
67861;SDS011;54665;51.462;6.698;2022-11-20T08:05:45;46.93;;;20.23;;
67861;SDS011;54665;51.462;6.698;2022-11-20T08:08:11;46.47;;;20.60;;
67861;SDS011;54665;51.462;6.698;2022-11-20T08:10:36;46.05;;;19.92;;
67861;SDS011;54665;51.462;6.698;2022-11-20T08:13:02;47.73;;;20.13;;
67861;SDS011;54665;51.462;6.698;2022-11-20T08:15:49;51.00;;;20.85;;
67861;SDS011;54665;51.462;6.698;2022-11-20T08:18:18;48.17;;;20.83;;
67861;SDS011;54665;51.462;6.698;2022-11-20T08:20:44;50.30;;;21.63;;
67861;SDS011;54665;51.462;6.698;2022-11-20T08:23:09;52.57;;;22.20;;
67861;SDS011;54665;51.462;6.698;2022-11-20T08:25:35;50.75;;;23.17;;
67861;SDS011;54665;51.462;6.698;2022-11-20T08:28:03;51.00;;;21.93;;
67861;SDS011;54665;51.462;6.698;2022-11-20T08:30:31;44.50;;;20.02;;
67861;SDS011;54665;51.462;6.698;2022-11-20T08:33:01;48.60;;;21.30;;
67861;SDS011;54665;51.462;6.698;2022-11-20T08:35:36;43.80;;;19.50;;
67861;SDS011;54665;51.462;6.698;2022-11-20T08:38:03;43.13;;;18.98;;
67861;SDS011;54665;51.462;6.698;2022-11-20T08:40:29;46.70;;;20.00;;
67861;SDS011;54665;51.462;6.698;2022-11-20T08:42:55;43.13;;;18.33;;
67861;SDS011;54665;51.462;6.698;2022-11-20T08:45:21;42.00;;;18.07;;
67861;SDS011;54665;51.462;6.698;2022-11-20T08:47:46;38.47;;;18.17;;
67861;SDS011;54665;51.462;6.698;2022-11-20T08:50:12;37.43;;;16.30;;
67861;SDS011;54665;51.462;6.698;2022-11-20T08:52:39;35.63;;;15.88;;
67861;SDS011;54665;51.462;6.698;2022-11-20T08:55:04;36.20;;;14.83;;
67861;SDS011;54665;51.462;6.698;2022-11-20T08:57:34;35.97;;;15.32;;
67861;SDS011;54665;51.462;6.698;2022-11-20T09:00:00;35.57;;;15.90;;
67861;SDS011;54665;51.462;6.698;2022-11-20T09:02:27;41.95;;;16.48;;
67861;SDS011;54665;51.462;6.698;2022-11-20T09:04:53;35.87;;;16.43;;
67861;SDS011;54665;51.462;6.698;2022-11-20T09:07:18;37.70;;;15.60;;
67861;SDS011;54665;51.462;6.698;2022-11-20T09:09:44;34.75;;;15.25;;
67861;SDS011;54665;51.462;6.698;2022-11-20T09:12:10;35.93;;;15.00;;
67861;SDS011;54665;51.462;6.698;2022-11-20T09:14:35;31.73;;;14.05;;
67861;SDS011;54665;51.462;6.698;2022-11-20T09:17:00;28.50;;;12.63;;
67861;SDS011;54665;51.462;6.698;2022-11-20T09:19:26;25.57;;;11.93;;
67861;SDS011;54665;51.462;6.698;2022-11-20T09:21:51;27.10;;;12.37;;
67861;SDS011;54665;51.462;6.698;2022-11-20T09:24:17;27.40;;;12.55;;
67861;SDS011;54665;51.462;6.698;2022-11-20T09:26:43;26.50;;;11.90;;
67861;SDS011;54665;51.462;6.698;2022-11-20T09:29:09;23.48;;;11.27;;
67861;SDS011;54665;51.462;6.698;2022-11-20T09:31:34;19.93;;;8.67;;
67861;SDS011;54665;51.462;6.698;2022-11-20T09:34:00;22.07;;;10.03;;
67861;SDS011;54665;51.462;6.698;2022-11-20T09:36:25;24.33;;;10.27;;
67861;SDS011;54665;51.462;6.698;2022-11-20T09:38:51;25.63;;;10.65;;
67861;SDS011;54665;51.462;6.698;2022-11-20T09:44:13;25.75;;;10.90;;
67861;SDS011;54665;51.462;6.698;2022-11-20T09:47:03;24.87;;;10.77;;
67861;SDS011;54665;51.462;6.698;2022-11-20T09:52:44;24.35;;;10.60;;
67861;SDS011;54665;51.462;6.698;2022-11-20T09:55:31;24.17;;;10.15;;
67861;SDS011;54665;51.462;6.698;2022-11-20T09:57:56;23.23;;;10.17;;
67861;SDS011;54665;51.462;6.698;2022-11-20T10:00:24;26.75;;;11.20;;
67861;SDS011;54665;51.462;6.698;2022-11-20T10:03:01;28.38;;;12.25;;
67861;SDS011;54665;51.462;6.698;2022-11-20T10:05:40;26.65;;;11.48;;
67861;SDS011;54665;51.462;6.698;2022-11-20T10:08:17;24.92;;;10.23;;
67861;SDS011;54665;51.462;6.698;2022-11-20T10:10:47;25.60;;;10.70;;
67861;SDS011;54665;51.462;6.698;2022-11-20T10:13:34;28.08;;;12.65;;
67861;SDS011;54665;51.462;6.698;2022-11-20T10:22:02;28.52;;;11.82;;
67861;SDS011;54665;51.462;6.698;2022-11-20T10:24:34;26.60;;;11.40;;
67861;SDS011;54665;51.462;6.698;2022-11-20T10:27:18;27.67;;;11.98;;
67861;SDS011;54665;51.462;6.698;2022-11-20T10:30:11;30.20;;;12.85;;
67861;SDS011;54665;51.462;6.698;2022-11-20T10:32:39;27.17;;;12.38;;
67861;SDS011;54665;51.462;6.698;2022-11-20T10:38:07;32.63;;;13.43;;
67861;SDS011;54665;51.462;6.698;2022-11-20T10:40:38;32.60;;;13.05;;
67861;SDS011;54665;51.462;6.698;2022-11-20T10:46:03;29.42;;;12.73;;
67861;SDS011;54665;51.462;6.698;2022-11-20T10:48:33;31.75;;;13.68;;
67861;SDS011;54665;51.462;6.698;2022-11-20T10:57:05;33.70;;;13.55;;
67861;SDS011;54665;51.462;6.698;2022-11-20T10:59:45;42.88;;;16.15;;
67861;SDS011;54665;51.462;6.698;2022-11-20T11:02:20;34.95;;;13.50;;
67861;SDS011;54665;51.462;6.698;2022-11-20T11:04:48;55.07;;;20.63;;
67861;SDS011;54665;51.462;6.698;2022-11-20T11:07:17;49.58;;;18.30;;
67861;SDS011;54665;51.462;6.698;2022-11-20T11:09:50;43.63;;;16.58;;
67861;SDS011;54665;51.462;6.698;2022-11-20T11:12:18;42.65;;;15.70;;
67861;SDS011;54665;51.462;6.698;2022-11-20T11:14:49;46.85;;;17.35;;
67861;SDS011;54665;51.462;6.698;2022-11-20T11:17:34;50.00;;;16.47;;
67861;SDS011;54665;51.462;6.698;2022-11-20T11:20:05;51.95;;;18.33;;
67861;SDS011;54665;51.462;6.698;2022-11-20T11:22:32;31.75;;;13.10;;
67861;SDS011;54665;51.462;6.698;2022-11-20T11:24:59;34.92;;;12.30;;
67861;SDS011;54665;51.462;6.698;2022-11-20T11:27:25;31.03;;;11.90;;
67861;SDS011;54665;51.462;6.698;2022-11-20T11:29:50;30.60;;;12.70;;
67861;SDS011;54665;51.462;6.698;2022-11-20T11:32:28;30.98;;;11.93;;
67861;SDS011;54665;51.462;6.698;2022-11-20T11:35:00;27.50;;;10.98;;
67861;SDS011;54665;51.462;6.698;2022-11-20T11:37:33;25.10;;;10.70;;
67861;SDS011;54665;51.462;6.698;2022-11-20T11:40:00;29.10;;;11.90;;
67861;SDS011;54665;51.462;6.698;2022-11-20T11:42:27;29.63;;;12.38;;
67861;SDS011;54665;51.462;6.698;2022-11-20T11:44:53;27.80;;;11.30;;
67861;SDS011;54665;51.462;6.698;2022-11-20T11:58:14;29.60;;;11.45;;
67861;SDS011;54665;51.462;6.698;2022-11-20T12:03:37;32.10;;;12.07;;
67861;SDS011;54665;51.462;6.698;2022-11-20T12:06:09;27.42;;;11.63;;
67861;SDS011;54665;51.462;6.698;2022-11-20T12:13:53;27.20;;;11.52;;
67861;SDS011;54665;51.462;6.698;2022-11-20T12:16:23;29.47;;;11.03;;
67861;SDS011;54665;51.462;6.698;2022-11-20T12:18:50;32.10;;;11.52;;
67861;SDS011;54665;51.462;6.698;2022-11-20T12:26:55;26.52;;;11.13;;
67861;SDS011;54665;51.462;6.698;2022-11-20T12:29:31;28.13;;;11.17;;
67861;SDS011;54665;51.462;6.698;2022-11-20T12:32:03;23.92;;;10.52;;
67861;SDS011;54665;51.462;6.698;2022-11-20T12:37:33;27.17;;;10.20;;
67861;SDS011;54665;51.462;6.698;2022-11-20T12:40:06;28.17;;;10.13;;
67861;SDS011;54665;51.462;6.698;2022-11-20T12:43:39;26.07;;;10.20;;
67861;SDS011;54665;51.462;6.698;2022-11-20T12:52:03;23.35;;;9.45;;
67861;SDS011;54665;51.462;6.698;2022-11-20T12:54:50;24.17;;;9.40;;
67861;SDS011;54665;51.462;6.698;2022-11-20T12:57:49;25.07;;;9.60;;
67861;SDS011;54665;51.462;6.698;2022-11-20T13:00:26;24.02;;;9.98;;
67861;SDS011;54665;51.462;6.698;2022-11-20T13:06:03;25.90;;;10.13;;
67861;SDS011;54665;51.462;6.698;2022-11-20T13:08:36;28.33;;;10.85;;
67861;SDS011;54665;51.462;6.698;2022-11-20T13:19:05;27.58;;;10.77;;
67861;SDS011;54665;51.462;6.698;2022-11-20T13:21:40;26.70;;;11.02;;
67861;SDS011;54665;51.462;6.698;2022-11-20T13:32:47;30.60;;;11.68;;
67861;SDS011;54665;51.462;6.698;2022-11-20T13:35:35;33.58;;;12.07;;
67861;SDS011;54665;51.462;6.698;2022-11-20T13:38:12;32.22;;;11.23;;
67861;SDS011;54665;51.462;6.698;2022-11-20T13:40:53;31.52;;;11.60;;
67861;SDS011;54665;51.462;6.698;2022-11-20T13:43:40;32.63;;;11.47;;
67861;SDS011;54665;51.462;6.698;2022-11-20T13:46:07;30.63;;;11.85;;
67861;SDS011;54665;51.462;6.698;2022-11-20T13:48:38;29.10;;;10.95;;
67861;SDS011;54665;51.462;6.698;2022-11-20T13:59:08;33.58;;;12.07;;
67861;SDS011;54665;51.462;6.698;2022-11-20T14:01:58;29.98;;;10.93;;
67861;SDS011;54665;51.462;6.698;2022-11-20T14:04:26;34.22;;;12.73;;
67861;SDS011;54665;51.462;6.698;2022-11-20T14:06:55;33.83;;;12.38;;
67861;SDS011;54665;51.462;6.698;2022-11-20T14:09:26;33.47;;;12.30;;
67861;SDS011;54665;51.462;6.698;2022-11-20T14:11:56;31.85;;;12.73;;
67861;SDS011;54665;51.462;6.698;2022-11-20T14:14:23;31.65;;;12.20;;
67861;SDS011;54665;51.462;6.698;2022-11-20T14:17:03;31.90;;;12.48;;
67861;SDS011;54665;51.462;6.698;2022-11-20T14:19:31;30.83;;;11.67;;
67861;SDS011;54665;51.462;6.698;2022-11-20T14:24:59;27.55;;;10.48;;
67861;SDS011;54665;51.462;6.698;2022-11-20T14:27:52;32.55;;;11.40;;
67861;SDS011;54665;51.462;6.698;2022-11-20T14:30:21;33.15;;;12.40;;
67861;SDS011;54665;51.462;6.698;2022-11-20T14:32:49;32.00;;;11.90;;
67861;SDS011;54665;51.462;6.698;2022-11-20T14:37:49;32.33;;;11.85;;
67861;SDS011;54665;51.462;6.698;2022-11-20T14:40:30;30.57;;;11.47;;
67861;SDS011;54665;51.462;6.698;2022-11-20T14:43:00;32.53;;;11.88;;
67861;SDS011;54665;51.462;6.698;2022-11-20T14:45:25;33.67;;;12.40;;
67861;SDS011;54665;51.462;6.698;2022-11-20T14:47:52;34.88;;;12.85;;
67861;SDS011;54665;51.462;6.698;2022-11-20T14:50:26;35.30;;;12.63;;
67861;SDS011;54665;51.462;6.698;2022-11-20T14:52:54;32.63;;;11.77;;
67861;SDS011;54665;51.462;6.698;2022-11-20T14:55:28;33.65;;;11.48;;
67861;SDS011;54665;51.462;6.698;2022-11-20T14:57:56;31.93;;;12.63;;
67861;SDS011;54665;51.462;6.698;2022-11-20T15:00:24;35.47;;;12.60;;
67861;SDS011;54665;51.462;6.698;2022-11-20T15:02:50;35.42;;;11.82;;
67861;SDS011;54665;51.462;6.698;2022-11-20T15:05:17;34.42;;;12.40;;
67861;SDS011;54665;51.462;6.698;2022-11-20T15:07:46;35.10;;;12.68;;
67861;SDS011;54665;51.462;6.698;2022-11-20T15:10:19;36.13;;;13.00;;
67861;SDS011;54665;51.462;6.698;2022-11-20T15:15:21;35.03;;;13.35;;
67861;SDS011;54665;51.462;6.698;2022-11-20T15:17:57;39.13;;;12.43;;
67861;SDS011;54665;51.462;6.698;2022-11-20T15:20:24;37.57;;;12.80;;
67861;SDS011;54665;51.462;6.698;2022-11-20T15:22:52;41.28;;;13.77;;
67861;SDS011;54665;51.462;6.698;2022-11-20T15:25:17;35.43;;;12.93;;
67861;SDS011;54665;51.462;6.698;2022-11-20T15:27:44;39.97;;;13.85;;
67861;SDS011;54665;51.462;6.698;2022-11-20T15:30:17;40.78;;;13.50;;
67861;SDS011;54665;51.462;6.698;2022-11-20T15:32:44;41.05;;;13.15;;
67861;SDS011;54665;51.462;6.698;2022-11-20T15:35:11;39.80;;;14.27;;
67861;SDS011;54665;51.462;6.698;2022-11-20T15:37:37;44.92;;;14.52;;
67861;SDS011;54665;51.462;6.698;2022-11-20T15:40:04;39.28;;;14.43;;
67861;SDS011;54665;51.462;6.698;2022-11-20T15:42:30;45.83;;;15.10;;
67861;SDS011;54665;51.462;6.698;2022-11-20T15:44:56;43.00;;;13.57;;
67861;SDS011;54665;51.462;6.698;2022-11-20T15:47:32;41.43;;;13.90;;
67861;SDS011;54665;51.462;6.698;2022-11-20T15:49:59;45.78;;;14.25;;
67861;SDS011;54665;51.462;6.698;2022-11-20T15:52:24;40.60;;;14.37;;
67861;SDS011;54665;51.462;6.698;2022-11-20T15:54:50;45.25;;;15.07;;
67861;SDS011;54665;51.462;6.698;2022-11-20T15:57:15;41.17;;;13.93;;
67861;SDS011;54665;51.462;6.698;2022-11-20T15:59:41;44.13;;;14.57;;
67861;SDS011;54665;51.462;6.698;2022-11-20T16:02:13;41.75;;;14.40;;
67861;SDS011;54665;51.462;6.698;2022-11-20T16:04:40;41.70;;;14.15;;
67861;SDS011;54665;51.462;6.698;2022-11-20T16:07:06;46.87;;;14.53;;
67861;SDS011;54665;51.462;6.698;2022-11-20T16:09:32;41.55;;;14.15;;